Time;durP1;ratioP1;P1;durP2;ratioP2;P2;SDS_P1;SDS_P2;PMS_P1;PMS_P2;Temp;Humidity;BMP_temperature;BMP_pressure;BME280_temperature;BME280_humidity;BME280_pressure;Samples;Min_cycle;Max_cycle;Signal;HPM_P1;HPM_P2
2021/11/12 00:02:12;;;;;;;71.27;36.07;;;;;;;10.53;84.89;101952.81;5037814;28;20470;-73
2021/11/12 00:12:38;;;;;;;82.10;38.90;;;;;;;10.77;83.74;101945.69;5018263;28;20399;-72
2021/11/12 00:15:05;;;;;;;90.27;39.60;;;;;;;10.24;85.92;101947.56;5019076;28;20444;-72
2021/11/12 00:17:34;;;;;;;89.17;38.90;;;;;;;10.67;84.90;101938.44;5021842;28;20424;-72
2021/11/12 00:20:01;;;;;;;97.00;38.77;;;;;;;10.32;85.69;101950.41;5034093;28;20422;-71
2021/11/12 00:22:27;;;;;;;87.80;38.17;;;;;;;10.32;85.64;101945.19;5049348;28;20715;-71
2021/11/12 00:24:54;;;;;;;83.70;38.77;;;;;;;10.68;84.62;101940.19;5050557;28;20427;-73
2021/11/12 00:27:21;;;;;;;87.40;38.70;;;;;;;10.11;86.25;101938.50;5047752;28;20427;-73
2021/11/12 00:38:25;;;;;;;112.27;41.17;;;;;;;10.45;85.63;101932.59;5041443;28;20800;-72
2021/11/12 00:40:22;;;;;;;121.10;44.13;;;;;;;10.30;86.44;101921.69;5023837;28;20490;-71
2021/11/12 00:45:26;;;;;;;119.13;46.00;;;;;;;10.68;84.74;101924.56;5025719;28;20450;-73
2021/11/12 00:47:58;;;;;;;104.83;41.00;;;;;;;10.51;85.33;101921.44;5041136;28;20777;-73
2021/11/12 00:50:34;;;;;;;127.93;42.80;;;;;;;10.01;86.98;101919.09;5040854;28;20388;-72
2021/11/12 00:55:27;;;;;;;130.67;43.43;;;;;;;10.14;86.57;101925.56;5040935;28;20441;-73
2021/11/12 00:57:54;;;;;;;123.40;43.60;;;;;;;10.12;87.23;101927.25;5040862;28;20264;-71
2021/11/12 01:00:20;;;;;;;122.30;44.23;;;;;;;10.34;86.41;101922.69;5023706;28;20416;-69
2021/11/12 01:02:45;;;;;;;123.80;43.87;;;;;;;10.13;86.69;101923.78;5041011;28;20384;-69
2021/11/12 01:05:11;;;;;;;148.80;46.27;;;;;;;10.29;85.75;101931.22;5040627;28;20783;-68
2021/11/12 01:07:38;;;;;;;116.70;44.50;;;;;;;10.45;85.13;101924.78;5040486;28;20174;-69
2021/11/12 01:10:05;;;;;;;119.87;42.80;;;;;;;10.43;85.49;101918.66;5023756;28;20391;-68
2021/11/12 01:12:30;;;;;;;111.80;43.80;;;;;;;10.27;85.66;101919.00;5040412;28;20427;-69
2021/11/12 01:14:56;;;;;;;116.07;44.27;;;;;;;10.61;84.26;101915.69;5040389;28;20467;-69
2021/11/12 01:17:23;;;;;;;119.10;43.27;;;;;;;10.63;83.77;101909.63;5041161;28;20169;-69
2021/11/12 01:19:49;;;;;;;104.43;42.53;;;;;;;10.54;84.24;101911.13;5040519;28;20388;-69
2021/11/12 01:22:14;;;;;;;103.50;43.30;;;;;;;10.58;83.86;101906.88;5040078;28;20700;-69
2021/11/12 01:24:40;;;;;;;101.80;43.20;;;;;;;10.73;83.41;101909.03;5040826;28;20169;-68
2021/11/12 01:27:06;;;;;;;104.43;44.33;;;;;;;10.75;82.66;101899.53;5039074;28;20182;-69
2021/11/12 01:29:31;;;;;;;101.43;45.10;;;;;;;10.75;82.99;101905.63;5040069;28;20251;-69
2021/11/12 01:31:58;;;;;;;96.60;44.00;;;;;;;10.54;84.06;101905.91;5040366;28;20170;-68
2021/11/12 01:34:23;;;;;;;92.90;42.90;;;;;;;10.69;83.53;101899.34;5022663;28;20190;-69
2021/11/12 01:36:49;;;;;;;97.10;40.80;;;;;;;10.41;84.72;101889.03;5022848;28;20409;-68
2021/11/12 01:39:19;;;;;;;99.70;39.37;;;;;;;10.38;85.35;101888.94;5040355;28;20166;-69
2021/11/12 01:41:51;;;;;;;86.10;38.97;;;;;;;10.63;84.18;101880.94;5022701;28;20302;-69
2021/11/12 01:44:27;;;;;;;93.60;42.10;;;;;;;10.75;82.15;101889.97;5039901;28;20455;-68
2021/11/12 01:49:40;;;;;;;86.03;40.90;;;;;;;10.09;85.65;101883.75;5039955;28;20780;-69
2021/11/12 01:52:17;;;;;;;75.93;37.77;;;;;;;10.22;84.97;101876.28;5040601;28;20430;-69
2021/11/12 02:00:26;;;;;;;71.60;36.87;;;;;;;10.34;84.56;101876.63;5059778;28;20461;-68
2021/11/12 02:02:52;;;;;;;64.77;34.50;;;;;;;10.87;82.32;101865.94;5059368;28;20419;-69
2021/11/12 02:05:18;;;;;;;62.17;33.73;;;;;;;10.67;81.68;101874.97;5059598;28;20412;-68
2021/11/12 02:07:44;;;;;;;61.93;35.37;;;;;;;10.72;82.11;101874.25;5059930;28;20491;-69
2021/11/12 02:10:15;;;;;;;66.80;35.30;;;;;;;10.97;81.26;101868.81;5059409;28;20184;-69
2021/11/12 02:13:25;;;;;;;61.33;34.00;;;;;;;10.63;82.02;101874.00;5058431;28;20162;-69
2021/11/12 02:15:31;;;;;;;64.40;34.03;;;;;;;10.70;81.63;101875.03;5053649;28;20518;-68
2021/11/12 02:18:00;;;;;;;64.07;34.80;;;;;;;10.48;82.88;101868.34;5059217;28;20435;-69
2021/11/12 02:20:43;;;;;;;64.03;36.00;;;;;;;10.47;82.43;101856.16;5059103;28;20403;-69
2021/11/12 02:23:09;;;;;;;63.30;34.87;;;;;;;10.53;82.46;101857.22;5058236;28;20505;-68
2021/11/12 02:25:39;;;;;;;61.27;34.67;;;;;;;10.74;81.58;101864.75;5058379;28;20507;-71
2021/11/12 02:28:09;;;;;;;59.47;32.23;;;;;;;10.71;81.72;101859.44;5059005;28;20257;-68
2021/11/12 02:30:36;;;;;;;62.60;33.90;;;;;;;10.80;81.35;101858.81;5059385;28;20709;-69
2021/11/12 02:33:03;;;;;;;54.80;32.57;;;;;;;10.68;81.55;101850.66;5058728;28;20398;-67
2021/11/12 02:35:30;;;;;;;53.10;31.30;;;;;;;10.48;82.59;101852.72;5058784;28;20456;-68
2021/11/12 02:37:56;;;;;;;49.77;30.43;;;;;;;10.54;82.47;101838.13;5058932;28;20441;-69
2021/11/12 02:40:21;;;;;;;52.90;30.60;;;;;;;10.50;82.25;101849.31;5058708;28;20420;-69
2021/11/12 02:42:46;;;;;;;52.37;30.90;;;;;;;10.14;84.32;101842.16;5058563;28;20180;-68
2021/11/12 02:45:12;;;;;;;55.83;32.20;;;;;;;10.42;84.03;101853.44;5059260;28;20248;-68
2021/11/12 02:47:37;;;;;;;53.53;32.57;;;;;;;10.76;81.88;101846.53;5058517;28;20187;-69
2021/11/12 02:50:03;;;;;;;55.83;33.53;;;;;;;10.97;80.82;101847.94;5058519;28;20172;-68
2021/11/12 02:52:28;;;;;;;55.30;33.30;;;;;;;11.12;80.27;101843.09;5058228;28;20217;-68
2021/11/12 02:54:53;;;;;;;54.93;32.23;;;;;;;10.90;80.98;101832.09;5058402;28;20302;-69
2021/11/12 02:57:22;;;;;;;52.80;31.60;;;;;;;10.66;81.70;101836.69;5057929;28;20265;-68
2021/11/12 02:59:48;;;;;;;52.43;31.53;;;;;;;10.85;80.88;101832.84;5058154;28;20204;-69
2021/11/12 03:02:14;;;;;;;49.57;30.10;;;;;;;11.03;79.97;101828.09;5058083;28;20712;-69
2021/11/12 03:04:40;;;;;;;44.80;29.93;;;;;;;10.93;80.15;101826.09;5058561;28;20208;-69
2021/11/12 03:07:05;;;;;;;47.50;30.47;;;;;;;10.97;80.38;101822.72;5058241;28;20802;-69
2021/11/12 03:09:33;;;;;;;45.30;30.43;;;;;;;10.69;81.43;101811.56;5058330;28;20409;-69
2021/11/12 03:12:00;;;;;;;45.03;29.00;;;;;;;10.95;80.94;101811.38;5058504;28;20413;-69
2021/11/12 03:14:25;;;;;;;50.00;31.37;;;;;;;10.39;81.58;101811.63;5058007;28;20840;-68
2021/11/12 03:16:51;;;;;;;47.33;30.30;;;;;;;10.72;81.57;101806.44;5058175;28;20411;-68
2021/11/12 03:19:19;;;;;;;52.00;31.67;;;;;;;10.75;80.83;101801.28;5058747;28;20208;-67
2021/11/12 03:21:45;;;;;;;50.87;30.47;;;;;;;10.50;82.64;101799.78;5057137;28;20529;-67
2021/11/12 03:24:29;;;;;;;52.07;32.40;;;;;;;10.48;82.38;101804.06;5057173;28;20416;-68
2021/11/12 04:02:15;;;;;;;51.47;32.40;;;;;;;10.41;83.22;101792.56;5061567;28;20871;-68
2021/11/12 04:04:54;;;;;;;57.47;35.30;;;;;;;10.26;83.27;101792.13;5061559;28;20666;-68
2021/11/12 04:07:35;;;;;;;55.47;32.87;;;;;;;10.62;81.67;101788.75;5061835;28;20394;-68
2021/11/12 04:18:27;;;;;;;54.93;34.63;;;;;;;10.46;81.68;101795.31;5061377;28;20504;-70
2021/11/12 04:21:06;;;;;;;54.87;34.57;;;;;;;10.29;82.29;101785.25;5061331;28;20485;-69
2021/11/12 04:40:22;;;;;;;69.23;35.43;;;;;;;10.19;83.26;101782.34;5061249;28;20884;-68
2021/11/12 05:12:50;;;;;;;69.20;39.03;;;;;;;10.16;83.21;101770.16;5060267;28;20390;-68
2021/11/12 05:26:35;;;;;;;77.20;40.00;;;;;;;10.34;83.03;101758.47;5060142;28;20473;-69
2021/11/12 05:50:19;;;;;;;93.00;37.70;;;;;;;9.53;85.42;101737.06;5060217;28;20835;-68
2021/11/12 05:55:28;;;;;;;71.23;35.80;;;;;;;9.30;86.62;101731.16;5059801;28;20441;-69
2021/11/12 05:57:54;;;;;;;67.40;33.20;;;;;;;9.15;86.72;101728.97;5058938;28;20502;-69
2021/11/12 06:00:20;;;;;;;68.50;36.30;;;;;;;9.58;85.47;101731.16;5059639;28;20181;-69
2021/11/12 06:02:45;;;;;;;69.13;36.07;;;;;;;9.65;85.16;101716.59;5059690;28;20201;-68
2021/11/12 06:05:11;;;;;;;61.10;35.73;;;;;;;9.59;85.70;101711.19;5059481;28;20477;-68
2021/11/12 06:07:37;;;;;;;60.50;35.87;;;;;;;9.33;86.11;101718.25;5059412;28;20169;-68
2021/11/12 06:10:05;;;;;;;63.10;34.47;;;;;;;9.33;85.57;101715.66;5059876;28;20507;-67
2021/11/12 06:12:30;;;;;;;56.67;33.90;;;;;;;9.70;85.02;101703.69;5059068;28;20283;-68
2021/11/12 06:14:56;;;;;;;57.43;33.47;;;;;;;9.73;85.06;101709.91;5058878;28;20821;-69
2021/11/12 06:17:21;;;;;;;58.50;33.50;;;;;;;9.26;86.30;101711.97;5059426;28;20170;-68
2021/11/12 06:19:46;;;;;;;59.30;32.93;;;;;;;9.40;86.50;101710.69;5059270;28;20183;-68
2021/11/12 06:22:12;;;;;;;57.27;33.37;;;;;;;9.78;84.54;101707.41;5058795;28;20197;-68
2021/11/12 06:24:38;;;;;;;55.50;31.57;;;;;;;9.74;84.88;101706.47;5059349;28;20249;-68
2021/11/12 06:27:04;;;;;;;55.80;31.57;;;;;;;9.75;85.16;101702.13;5058881;28;20173;-68
2021/11/12 06:29:29;;;;;;;59.77;33.33;;;;;;;9.48;85.63;101694.41;5058900;28;20428;-69
2021/11/12 06:31:55;;;;;;;61.33;33.63;;;;;;;9.74;85.32;101695.13;5058599;28;20393;-69
2021/11/12 06:34:20;;;;;;;54.57;30.80;;;;;;;9.30;86.51;101695.63;5058485;28;20215;-68
2021/11/12 06:36:46;;;;;;;52.90;28.70;;;;;;;9.77;84.70;101684.84;5058466;28;20253;-69
2021/11/12 06:39:11;;;;;;;50.33;29.57;;;;;;;9.66;84.68;101679.31;5059288;28;20174;-68
2021/11/12 06:41:42;;;;;;;47.87;26.97;;;;;;;9.48;85.13;101671.84;5058577;28;20180;-69
2021/11/12 06:49:59;;;;;;;50.37;26.83;;;;;;;8.51;90.44;101674.94;5058485;28;20585;-68
2021/11/12 06:52:26;;;;;;;53.33;26.50;;;;;;;9.35;86.74;101670.63;5058169;28;20848;-69
2021/11/12 06:54:52;;;;;;;60.07;27.73;;;;;;;9.09;86.07;101675.00;5058504;28;20468;-68
2021/11/12 06:57:19;;;;;;;56.43;25.67;;;;;;;9.39;85.72;101675.06;5057622;28;20855;-68
2021/11/12 06:59:46;;;;;;;51.17;25.43;;;;;;;9.49;85.62;101672.75;5058008;28;20393;-68
2021/11/12 07:02:13;;;;;;;72.67;26.10;;;;;;;9.04;87.03;101674.88;5058811;28;20390;-69
2021/11/12 07:04:38;;;;;;;64.30;29.07;;;;;;;9.76;85.08;101676.13;5058483;28;20469;-68
2021/11/12 07:07:06;;;;;;;48.17;27.57;;;;;;;9.55;85.29;101679.00;5058393;28;20831;-68
2021/11/12 07:09:32;;;;;;;194.33;31.43;;;;;;;9.28;85.00;101689.47;5058809;28;20241;-68
2021/11/12 07:11:58;;;;;;;149.00;32.27;;;;;;;9.12;88.17;101702.84;5057213;28;20383;-68
2021/11/12 07:14:23;;;;;;;147.50;30.13;;;;;;;9.19;87.35;101702.22;5058029;28;20481;-68
2021/11/12 07:16:48;;;;;;;115.43;29.23;;;;;;;9.24;85.98;101713.63;5058751;28;20193;-68
2021/11/12 07:19:14;;;;;;;55.37;27.97;;;;;;;9.34;85.55;101700.06;5058180;28;20465;-68
2021/11/12 07:21:39;;;;;;;56.00;25.83;;;;;;;9.08;86.16;101701.88;5058015;28;20196;-68
2021/11/12 07:24:05;;;;;;;48.93;23.90;;;;;;;9.39;85.06;101698.50;5058170;28;20201;-68
2021/11/12 07:26:30;;;;;;;52.93;23.87;;;;;;;9.23;85.53;101696.28;5057061;28;20174;-68
2021/11/12 07:28:55;;;;;;;92.70;24.97;;;;;;;9.27;86.01;101682.53;5057098;28;20449;-68
2021/11/12 07:31:21;;;;;;;43.67;22.90;;;;;;;9.15;85.40;101685.63;5058742;28;20177;-68
2021/11/12 07:33:47;;;;;;;53.90;22.47;;;;;;;9.56;84.87;101674.69;5057804;28;20178;-69
2021/11/12 07:41:22;;;;;;;64.97;23.57;;;;;;;9.51;85.40;101686.66;5057747;28;20173;-67
2021/11/12 07:44:16;;;;;;;44.60;21.70;;;;;;;9.21;86.16;101674.50;5057906;28;20429;-68
2021/11/12 07:49:25;;;;;;;44.40;24.63;;;;;;;9.10;85.96;101668.97;5057916;28;20422;-67
2021/11/12 07:51:51;;;;;;;35.17;18.23;;;;;;;9.10;86.46;101654.25;5057351;28;20442;-68
2021/11/12 07:54:16;;;;;;;28.20;15.80;;;;;;;9.38;85.41;101651.59;5057580;28;20178;-68
2021/11/12 07:56:41;;;;;;;31.20;16.07;;;;;;;9.26;85.22;101662.53;5058114;28;20162;-69
2021/11/12 07:59:07;;;;;;;26.03;14.10;;;;;;;9.13;84.91;101661.25;5057980;28;20426;-67
2021/11/12 08:01:32;;;;;;;21.57;14.23;;;;;;;9.33;85.16;101661.00;5057632;28;20166;-68
2021/11/12 08:04:01;;;;;;;20.10;12.90;;;;;;;9.51;83.56;101671.97;5058303;28;20185;-68
2021/11/12 08:06:28;;;;;;;17.60;11.97;;;;;;;9.39;83.78;101677.69;5057669;28;20425;-68
2021/11/12 08:09:01;;;;;;;19.23;11.43;;;;;;;9.51;83.23;101660.63;5057609;28;20690;-68
2021/11/12 08:11:38;;;;;;;15.23;10.40;;;;;;;9.13;84.89;101663.88;5057499;28;20416;-69
2021/11/12 08:14:10;;;;;;;17.10;10.47;;;;;;;8.98;85.72;101653.00;5057662;28;20415;-68
2021/11/12 08:16:49;;;;;;;15.20;11.47;;;;;;;8.58;86.99;101650.91;5057343;28;20442;-69
2021/11/12 08:19:18;;;;;;;16.67;10.93;;;;;;;9.33;84.23;101648.84;5057461;28;20761;-68
2021/11/12 08:29:52;;;;;;;17.27;11.17;;;;;;;9.47;84.14;101643.16;5057675;28;20405;-69
2021/11/12 08:35:14;;;;;;;21.17;13.17;;;;;;;9.13;85.36;101640.44;5056824;28;20468;-70
2021/11/12 08:40:30;;;;;;;19.90;13.00;;;;;;;9.01;87.12;101635.78;5061016;28;20389;-69
2021/11/12 08:43:04;;;;;;;19.43;12.20;;;;;;;9.51;83.51;101634.59;5060845;28;20244;-69
2021/11/12 08:45:34;;;;;;;18.10;11.60;;;;;;;9.24;85.27;101630.38;5060925;28;20462;-68
2021/11/12 08:48:04;;;;;;;17.43;12.27;;;;;;;9.21;86.22;101625.94;5060859;28;20747;-68
2021/11/12 08:50:30;;;;;;;18.67;12.30;;;;;;;9.08;86.00;101621.25;5060864;28;20408;-68
2021/11/12 08:53:06;;;;;;;25.23;14.90;;;;;;;9.31;85.18;101629.72;5057463;28;20684;-69
2021/11/12 08:55:33;;;;;;;24.73;13.80;;;;;;;9.26;85.06;101613.97;5060559;28;20530;-67
2021/11/12 08:57:59;;;;;;;22.47;13.90;;;;;;;9.28;85.76;101621.81;5060952;28;20421;-68
2021/11/12 09:00:25;;;;;;;21.90;12.67;;;;;;;9.38;85.34;101608.25;5060586;28;20427;-68
2021/11/12 09:02:51;;;;;;;22.10;14.27;;;;;;;9.11;86.63;101616.13;5060528;28;20196;-69
2021/11/12 09:05:18;;;;;;;23.63;14.03;;;;;;;9.54;84.46;101613.88;5060212;28;20419;-69
2021/11/12 09:07:48;;;;;;;25.27;13.10;;;;;;;9.07;86.25;101614.28;5059672;28;20223;-67
2021/11/12 09:10:14;;;;;;;29.63;14.00;;;;;;;9.09;86.27;101613.50;5060387;28;20474;-69
2021/11/12 09:12:41;;;;;;;23.47;15.20;;;;;;;9.34;85.90;101602.91;5060884;28;20485;-69
2021/11/12 09:15:13;;;;;;;23.33;14.20;;;;;;;9.38;86.51;101586.56;5059161;28;20289;-69
2021/11/12 09:17:45;;;;;;;22.43;14.43;;;;;;;9.59;85.26;101591.44;5059875;28;20434;-69
2021/11/12 09:20:10;;;;;;;24.07;15.63;;;;;;;9.08;86.67;101608.25;5059496;28;20390;-69
2021/11/12 09:22:36;;;;;;;20.87;14.70;;;;;;;9.48;84.73;101600.69;5060079;28;20437;-69
2021/11/12 09:25:01;;;;;;;24.60;15.33;;;;;;;10.04;82.68;101598.72;5060488;28;20188;-68
2021/11/12 09:27:26;;;;;;;18.87;13.53;;;;;;;10.01;82.43;101596.06;5059866;28;20193;-69
2021/11/12 09:29:52;;;;;;;20.77;13.50;;;;;;;9.93;82.18;101601.06;5059922;28;20255;-68
2021/11/12 09:32:18;;;;;;;21.60;13.90;;;;;;;9.81;83.06;101603.34;5060287;28;20170;-69
2021/11/12 09:34:44;;;;;;;22.47;15.13;;;;;;;9.98;82.21;101592.47;5059990;28;20555;-69
2021/11/12 09:37:11;;;;;;;20.63;13.37;;;;;;;9.93;82.38;101601.06;5059921;28;20424;-71
2021/11/12 09:39:40;;;;;;;17.63;12.80;;;;;;;10.01;81.13;101600.38;5060394;28;20181;-69
2021/11/12 09:42:06;;;;;;;14.40;11.37;;;;;;;10.21;80.80;101595.66;5059488;28;20420;-67
2021/11/12 09:44:32;;;;;;;16.50;12.20;;;;;;;10.01;80.71;101589.94;5058996;28;20666;-67
2021/11/12 09:46:58;;;;;;;17.93;12.37;;;;;;;9.92;82.37;101593.22;5060459;28;20396;-69
2021/11/12 09:49:24;;;;;;;15.23;13.00;;;;;;;9.15;84.65;101594.56;5059143;28;20189;-69
2021/11/12 09:51:49;;;;;;;14.80;12.20;;;;;;;9.39;82.54;101591.78;5050532;28;20465;-68
2021/11/12 09:54:15;;;;;;;15.17;11.80;;;;;;;9.75;81.83;101588.41;5040075;28;20530;-67
2021/11/12 09:56:40;;;;;;;13.77;11.30;;;;;;;10.00;80.70;101586.47;5039456;28;20221;-68
2021/11/12 09:59:06;;;;;;;14.80;11.67;;;;;;;10.21;79.98;101574.81;5039787;28;20236;-72
2021/11/12 10:01:35;;;;;;;13.80;9.50;;;;;;;12.29;81.05;101563.41;5040100;28;20270;-60
2021/11/12 10:04:05;;;;;;;14.93;11.70;;;;;;;10.60;75.22;101566.22;5040346;28;20170;-75
2021/11/12 10:06:34;;;;;;;12.90;10.87;;;;;;;10.29;77.96;101565.47;5039660;28;20451;-72
2021/11/12 10:08:59;;;;;;;12.93;11.50;;;;;;;9.65;80.58;101577.72;5039661;28;20414;-74
2021/11/12 10:11:33;;;;;;;14.73;11.77;;;;;;;10.06;78.99;101568.38;5039330;28;20410;-75
2021/11/12 10:14:01;;;;;;;15.40;13.00;;;;;;;10.28;78.63;101563.69;5039976;28;20177;-73
2021/11/12 10:16:40;;;;;;;14.03;12.47;;;;;;;10.22;79.60;101564.44;5039083;28;20451;-73
2021/11/12 10:19:10;;;;;;;13.80;12.40;;;;;;;10.60;77.29;101563.63;5036539;28;20399;-68
2021/11/12 10:21:45;;;;;;;15.57;13.67;;;;;;;10.11;78.76;101561.56;5038783;28;20680;-69
2021/11/12 10:24:16;;;;;;;14.43;12.93;;;;;;;10.27;79.07;101561.94;5038739;28;20420;-70
2021/11/12 10:26:51;;;;;;;13.03;11.57;;;;;;;10.59;77.27;101549.72;5038874;28;20420;-69
2021/11/12 10:29:25;;;;;;;13.40;12.00;;;;;;;10.38;77.42;101562.25;5038945;28;20468;-69
2021/11/12 10:31:57;;;;;;;14.17;12.67;;;;;;;10.64;76.41;101548.94;5038735;28;20425;-70
2021/11/12 10:34:34;;;;;;;14.50;13.03;;;;;;;10.74;76.17;101551.78;5038488;28;20391;-69
2021/11/12 10:37:07;;;;;;;12.90;11.60;;;;;;;11.03;75.38;101550.63;5038765;28;20424;-69
2021/11/12 10:39:36;;;;;;;14.47;12.97;;;;;;;10.82;75.21;101551.06;5038813;28;20466;-71
2021/11/12 10:42:06;;;;;;;13.80;12.37;;;;;;;10.61;76.36;101545.38;5038256;28;20436;-70
2021/11/12 10:44:33;;;;;;;14.70;12.73;;;;;;;10.63;76.12;101544.56;5038665;28;20422;-70
2021/11/12 10:47:04;;;;;;;14.27;12.77;;;;;;;10.85;75.89;101548.50;5021349;28;20424;-70
2021/11/12 10:49:34;;;;;;;14.30;12.80;;;;;;;10.51;76.52;101546.00;5021506;28;20475;-71
2021/11/12 10:52:06;;;;;;;14.17;12.67;;;;;;;10.50;76.80;101544.28;5038244;28;20504;-70
2021/11/12 10:54:52;;;;;;;14.07;12.60;;;;;;;10.87;74.95;101539.00;5021427;28;20413;-70
2021/11/12 10:57:21;;;;;;;14.13;12.63;;;;;;;11.09;74.63;101533.34;5038053;28;20894;-69
2021/11/12 10:59:55;;;;;;;15.60;12.90;;;;;;;11.00;75.10;101529.69;5038258;28;20405;-69
2021/11/12 11:02:25;;;;;;;13.43;12.13;;;;;;;10.74;75.94;101522.19;5038304;28;20506;-72
2021/11/12 11:04:51;;;;;;;14.07;12.67;;;;;;;11.04;75.43;101518.44;5021177;28;20413;-74
2021/11/12 11:07:18;;;;;;;14.03;12.53;;;;;;;10.70;75.91;101513.44;5038475;28;20413;-74
2021/11/12 11:09:44;;;;;;;13.53;12.23;;;;;;;11.04;75.26;101508.91;5037995;28;20162;-71
2021/11/12 11:12:30;;;;;;;12.27;10.93;;;;;;;10.90;75.76;101508.59;5037899;28;20661;-72
2021/11/12 11:15:12;;;;;;;12.17;10.97;;;;;;;11.22;74.78;101497.06;5037669;28;20212;-71
2021/11/12 11:17:43;;;;;;;13.70;11.93;;;;;;;10.86;75.72;101495.50;5021298;28;20845;-70
2021/11/12 11:20:11;;;;;;;13.33;11.93;;;;;;;10.88;76.00;101488.56;5020621;28;20474;-73
2021/11/12 11:22:44;;;;;;;14.50;13.00;;;;;;;11.24;75.52;101483.22;5037806;28;20719;-71
2021/11/12 11:25:10;;;;;;;13.17;11.77;;;;;;;11.14;75.12;101483.88;5020943;28;20405;-71
2021/11/12 11:27:36;;;;;;;13.47;11.30;;;;;;;10.97;75.53;101480.06;5037953;28;20413;-71
2021/11/12 11:30:02;;;;;;;11.40;10.30;;;;;;;11.02;75.28;101476.69;5038763;28;20483;-72
2021/11/12 11:32:28;;;;;;;12.27;11.07;;;;;;;11.03;75.43;101461.94;5037606;28;20532;-70
2021/11/12 11:34:53;;;;;;;12.30;11.03;;;;;;;10.74;75.63;101475.25;5037725;28;20475;-74
2021/11/12 11:37:19;;;;;;;12.20;10.90;;;;;;;10.87;75.60;101463.34;5020933;28;20365;-72
2021/11/12 11:39:44;;;;;;;12.20;11.00;;;;;;;11.09;75.40;101452.44;5020644;28;20208;-71
2021/11/12 11:42:12;;;;;;;11.43;10.23;;;;;;;11.24;74.84;101449.28;5020678;28;20197;-71
2021/11/12 11:44:39;;;;;;;12.40;11.03;;;;;;;10.51;77.70;101448.69;5020938;28;20166;-71
2021/11/12 11:47:05;;;;;;;13.10;11.10;;;;;;;11.06;75.67;101441.97;5037635;28;20406;-73
2021/11/12 11:49:32;;;;;;;11.77;10.23;;;;;;;10.27;77.80;101448.16;5037504;28;20491;-72
2021/11/12 11:52:04;;;;;;;13.17;10.97;;;;;;;10.63;77.23;101435.91;5036889;28;20217;-71
2021/11/12 11:54:44;;;;;;;12.50;11.03;;;;;;;10.67;76.77;101422.06;5057432;28;20415;-73
2021/11/12 11:57:15;;;;;;;12.47;10.27;;;;;;;10.17;78.50;101427.94;5057613;28;20451;-72
2021/11/12 11:59:41;;;;;;;12.40;11.00;;;;;;;10.22;78.24;101421.09;5057454;28;20426;-72
2021/11/12 12:02:21;;;;;;;13.27;11.17;;;;;;;10.66;77.50;101424.66;5057186;28;20840;-72
2021/11/12 12:04:55;;;;;;;15.00;11.33;;;;;;;10.50;77.78;101421.75;5057345;28;20503;-72
2021/11/12 12:07:25;;;;;;;12.83;10.60;;;;;;;10.69;76.99;101409.97;5057577;28;20390;-71
2021/11/12 12:09:54;;;;;;;11.67;10.03;;;;;;;10.54;77.07;101404.41;5057511;28;20416;-71
2021/11/12 12:12:29;;;;;;;11.80;9.90;;;;;;;10.78;75.79;101391.91;5059735;28;20419;-71
2021/11/12 12:14:56;;;;;;;11.87;10.60;;;;;;;10.55;76.85;101385.34;5061285;28;20937;-71
2021/11/12 12:17:25;;;;;;;12.50;9.77;;;;;;;10.56;76.87;101394.91;5060721;28;20458;-71
2021/11/12 12:20:00;;;;;;;9.57;8.60;;;;;;;10.36;77.70;101389.28;5060797;28;20390;-71
2021/11/12 12:43:14;;;;;;;11.47;9.80;;;;;;;10.95;75.91;101367.84;5060856;28;20427;-71
2021/11/12 13:25:13;;;;;;;10.57;9.53;;;;;;;11.28;73.50;101298.81;5059936;28;20386;-72
2021/11/12 13:27:39;;;;;;;9.37;8.47;;;;;;;10.52;74.47;101297.50;5059230;28;20525;-70
2021/11/12 13:30:06;;;;;;;10.13;8.97;;;;;;;10.27;76.15;101288.31;5059693;28;20416;-71
2021/11/12 13:32:40;;;;;;;9.80;8.17;;;;;;;10.48;74.43;101284.41;5059777;28;20444;-72
2021/11/12 13:35:06;;;;;;;9.10;8.20;;;;;;;10.31;74.70;101271.00;5060086;28;20517;-72
2021/11/12 13:37:31;;;;;;;8.70;7.90;;;;;;;10.69;72.23;101269.16;5059253;28;20562;-72
2021/11/12 13:40:12;;;;;;;8.30;7.50;;;;;;;10.29;72.75;101279.66;5059049;28;20188;-70
2021/11/12 13:42:45;;;;;;;8.50;7.40;;;;;;;11.88;80.16;101267.44;5059703;28;20166;-60
2021/11/12 13:45:13;;;;;;;6.53;5.93;;;;;;;15.09;65.34;101259.00;5059646;28;20390;-61
2021/11/12 13:47:38;;;;;;;7.80;6.23;;;;;;;15.48;60.89;101249.28;5059415;28;20823;-73
2021/11/12 13:50:05;;;;;;;6.37;5.80;;;;;;;11.23;67.43;101253.47;5058890;28;20495;-71
2021/11/12 13:52:33;;;;;;;6.97;6.27;;;;;;;11.12;68.86;101254.22;5044796;28;20225;-72
2021/11/12 13:55:05;;;;;;;7.40;6.60;;;;;;;10.05;73.80;101259.25;5039896;28;20449;-73
2021/11/12 13:57:30;;;;;;;7.23;6.53;;;;;;;10.25;72.97;101248.31;5039680;28;20797;-71
2021/11/12 13:59:58;;;;;;;7.37;6.57;;;;;;;10.25;73.95;101263.94;5039521;28;20416;-72
2021/11/12 14:02:24;;;;;;;7.07;6.40;;;;;;;10.04;74.74;101259.19;5039141;28;20223;-73
2021/11/12 14:04:50;;;;;;;7.50;6.80;;;;;;;10.10;75.49;101260.19;5022213;28;20388;-73
2021/11/12 14:07:21;;;;;;;6.73;6.13;;;;;;;10.31;74.30;101250.16;5022075;28;20412;-71
2021/11/12 14:10:07;;;;;;;6.47;5.87;;;;;;;10.20;74.78;101258.66;5039248;28;20417;-72
2021/11/12 14:12:33;;;;;;;7.37;6.20;;;;;;;9.32;77.02;101259.38;5039093;28;20417;-73
2021/11/12 14:15:27;;;;;;;7.60;6.80;;;;;;;9.87;75.69;101243.22;5022016;28;20706;-71
2021/11/12 14:18:21;;;;;;;7.33;6.63;;;;;;;9.83;75.11;101260.50;5039211;28;20201;-73
2021/11/12 14:24:25;;;;;;;6.63;5.80;;;;;;;9.78;74.60;101239.59;5034982;28;20436;-72
2021/11/12 14:38:28;;;;;;;6.33;5.73;;;;;;;9.73;74.24;101222.13;5005565;28;20474;-73
2021/11/12 14:46:39;;;;;;;6.93;6.23;;;;;;;10.20;71.53;101216.06;5021690;28;20831;-71
2021/11/12 14:52:23;;;;;;;6.80;5.83;;;;;;;9.86;71.52;101202.41;5038408;28;20487;-72
2021/11/12 14:54:56;;;;;;;6.97;6.27;;;;;;;9.70;71.27;101209.91;5038176;28;20448;-74
2021/11/12 14:59:51;;;;;;;7.17;6.47;;;;;;;9.56;71.18;101199.19;5038510;28;20421;-71
2021/11/12 15:02:16;;;;;;;7.10;6.53;;;;;;;9.76;70.71;101193.53;5038425;28;20474;-72
2021/11/12 15:04:43;;;;;;;10.30;8.37;;;;;;;9.41;71.28;101207.53;5038456;28;20857;-72
2021/11/12 15:07:09;;;;;;;7.77;7.07;;;;;;;9.81;70.98;101193.63;5021548;28;20166;-73
2021/11/12 15:09:36;;;;;;;7.30;6.47;;;;;;;9.69;70.00;101200.34;5038315;28;20801;-72
2021/11/12 15:12:06;;;;;;;7.53;6.83;;;;;;;9.56;71.08;101191.38;5037948;28;20220;-71
2021/11/12 15:14:56;;;;;;;7.70;6.90;;;;;;;9.71;70.54;101180.41;5038544;28;20387;-71
2021/11/12 15:17:17;;;;;;;7.60;6.83;;;;;;;9.59;70.82;101185.34;5037360;28;20391;-71
2021/11/12 15:19:45;;;;;;;8.13;7.33;;;;;;;9.69;70.53;101189.06;5020666;28;20423;-72
2021/11/12 15:25:01;;;;;;;10.00;8.50;;;;;;;9.48;71.56;101179.06;5037972;28;20399;-72
2021/11/12 15:30:19;;;;;;;10.53;9.27;;;;;;;9.57;71.79;101171.44;5037985;28;20453;-71
2021/11/12 15:32:50;;;;;;;12.50;11.00;;;;;;;9.35;72.94;101168.41;5037839;28;20579;-72
2021/11/12 15:35:18;;;;;;;12.33;10.43;;;;;;;9.52;72.25;101154.84;5037906;28;20943;-72
2021/11/12 15:40:22;;;;;;;10.13;9.13;;;;;;;9.52;73.57;101147.03;5037721;28;20469;-72
2021/11/12 15:42:59;;;;;;;12.20;10.90;;;;;;;9.50;73.90;101138.31;5038020;28;20705;-72
2021/11/12 15:45:36;;;;;;;14.07;12.60;;;;;;;9.88;71.96;101138.22;5037475;28;20487;-71
2021/11/12 15:48:14;;;;;;;14.30;12.30;;;;;;;9.39;72.62;101140.69;5041585;28;20898;-72
2021/11/12 15:55:54;;;;;;;14.10;12.60;;;;;;;9.15;73.54;101104.66;5061595;28;20437;-73
2021/11/12 16:09:24;;;;;;;22.40;14.77;;;;;;;8.62;74.96;101080.09;5061683;28;20433;-72
2021/11/12 16:14:56;;;;;;;17.47;15.67;;;;;;;8.41;75.61;101073.50;5061788;28;20418;-69
2021/11/12 16:20:34;;;;;;;17.60;15.80;;;;;;;8.62;75.02;101089.59;5061289;28;20413;-70
2021/11/12 16:25:32;;;;;;;18.80;14.20;;;;;;;8.40;75.70;101096.84;5061404;28;20415;-72